Time;durP1;ratioP1;P1;durP2;ratioP2;P2;SDS_P1;SDS_P2;PMS_P1;PMS_P2;Temp;Humidity;BMP_temperature;BMP_pressure;BME280_temperature;BME280_humidity;BME280_pressure;Samples;Min_cycle;Max_cycle;Signal;HPM_P1;HPM_P2
2023/07/10 00:00:53;;;;;;;7.60;6.90;;;15.80;99.90;;;;;;8356864;28;20197;-64
2023/07/10 00:04:57;;;;;;;9.40;7.63;;;15.80;99.90;;;;;;8349854;28;20221;-66
2023/07/10 00:08:57;;;;;;;7.30;6.60;;;15.80;99.90;;;;;;8366311;28;20267;-65
2023/07/10 00:12:58;;;;;;;7.90;7.10;;;15.80;99.90;;;;;;8369810;28;20177;-65
2023/07/10 00:16:59;;;;;;;10.50;7.20;;;15.70;99.90;;;;;;8352238;28;20276;-66
2023/07/10 00:21:00;;;;;;;8.30;7.43;;;15.70;99.90;;;;;;8354001;28;20238;-64
2023/07/10 00:25:01;;;;;;;7.70;6.90;;;15.80;99.90;;;;;;8347787;28;20210;-65
2023/07/10 00:29:23;;;;;;;8.60;7.10;;;15.80;99.90;;;;;;8345886;28;20189;-64
2023/07/10 00:33:24;;;;;;;7.90;6.93;;;15.80;99.90;;;;;;8349956;28;20189;-65
2023/07/10 00:37:25;;;;;;;7.87;6.83;;;15.80;99.90;;;;;;8351930;28;20252;-65
2023/07/10 00:41:32;;;;;;;7.80;7.00;;;15.70;99.90;;;;;;8359521;28;20190;-66
2023/07/10 00:45:33;;;;;;;8.73;7.20;;;15.70;99.90;;;;;;8367222;28;20188;-66
2023/07/10 00:49:54;;;;;;;7.47;6.80;;;15.70;99.90;;;;;;8365397;28;20185;-64
2023/07/10 00:53:56;;;;;;;7.93;7.13;;;15.70;99.90;;;;;;8363638;28;20248;-65
2023/07/10 00:58:05;;;;;;;7.93;7.13;;;15.70;99.90;;;;;;8367169;28;20192;-64
2023/07/10 01:02:15;;;;;;;7.07;6.37;;;15.70;99.90;;;;;;8350179;28;20332;-66
2023/07/10 01:06:27;;;;;;;7.63;6.73;;;15.60;99.90;;;;;;8352562;28;20205;-66
2023/07/10 01:10:28;;;;;;;8.70;7.80;;;15.50;99.90;;;;;;8365937;28;20205;-66
2023/07/10 01:14:34;;;;;;;7.93;7.13;;;15.50;99.90;;;;;;8346700;28;20189;-68
2023/07/10 01:18:37;;;;;;;7.30;6.60;;;15.50;99.90;;;;;;8354330;28;20189;-66
2023/07/10 01:22:38;;;;;;;6.97;6.37;;;15.50;99.90;;;;;;8364144;28;20334;-65
2023/07/10 01:26:40;;;;;;;8.40;7.53;;;15.40;99.90;;;;;;8345601;28;20263;-64
2023/07/10 01:30:43;;;;;;;6.87;6.27;;;15.30;99.90;;;;;;8364368;28;20199;-66
2023/07/10 01:34:52;;;;;;;8.93;7.17;;;15.20;99.90;;;;;;8349398;28;20280;-64
2023/07/10 01:39:09;;;;;;;8.90;7.33;;;15.10;99.90;;;;;;8349508;28;20282;-65
2023/07/10 01:43:10;;;;;;;8.07;6.93;;;15.00;99.90;;;;;;8366284;28;20236;-65
2023/07/10 01:47:12;;;;;;;8.33;7.53;;;14.90;99.90;;;;;;8344025;28;20178;-66
2023/07/10 01:51:13;;;;;;;9.10;7.63;;;14.80;99.90;;;;;;8350303;28;20180;-63
2023/07/10 01:55:17;;;;;;;8.90;8.10;;;14.70;1.00;;;;;;8352636;28;20185;-66
2023/07/10 01:59:18;;;;;;;9.57;8.57;;;14.70;1.00;;;;;;8348960;28;20193;-65
2023/07/10 02:03:19;;;;;;;9.33;8.20;;;14.60;1.00;;;;;;8347449;28;20209;-65
2023/07/10 02:07:23;;;;;;;9.57;8.53;;;14.60;1.00;;;;;;8353874;28;20260;-65
2023/07/10 02:11:26;;;;;;;8.53;7.70;;;14.60;1.00;;;;;;8353106;28;20189;-65
2023/07/10 02:15:32;;;;;;;8.13;7.37;;;14.50;1.00;;;;;;8347751;28;20205;-65
2023/07/10 02:19:33;;;;;;;8.00;7.30;;;14.40;1.00;;;;;;8347530;28;20259;-64
2023/07/10 02:23:37;;;;;;;8.00;7.23;;;14.30;1.00;;;;;;8350072;28;20225;-64
2023/07/10 02:27:38;;;;;;;8.33;7.53;;;14.30;1.00;;;;;;8353427;28;20181;-64
2023/07/10 02:31:39;;;;;;;9.10;8.20;;;14.20;1.00;;;;;;8352430;28;20177;-65
2023/07/10 02:35:43;;;;;;;9.73;8.40;;;14.20;1.00;;;;;;8346035;28;20177;-66
2023/07/10 02:39:47;;;;;;;8.30;7.50;;;14.10;1.00;;;;;;8364204;28;20189;-66
2023/07/10 02:43:48;;;;;;;7.97;7.17;;;14.10;1.00;;;;;;8363822;28;20205;-64
2023/07/10 02:47:49;;;;;;;8.80;8.00;;;14.10;1.00;;;;;;8344257;28;20212;-65
2023/07/10 02:51:50;;;;;;;7.90;7.20;;;14.10;1.00;;;;;;8346909;28;20186;-66
2023/07/10 02:55:51;;;;;;;8.90;8.10;;;14.20;1.00;;;;;;8347592;28;20224;-66
2023/07/10 02:59:52;;;;;;;8.80;8.00;;;14.20;1.00;;;;;;8347549;28;20208;-66
2023/07/10 03:03:53;;;;;;;8.60;7.80;;;14.20;1.00;;;;;;8350223;28;20254;-65
2023/07/10 03:07:56;;;;;;;8.80;7.97;;;14.20;1.00;;;;;;8350145;28;20242;-66
2023/07/10 03:11:58;;;;;;;9.27;8.47;;;14.10;1.00;;;;;;8358509;28;20205;-68
2023/07/10 03:16:05;;;;;;;10.30;9.20;;;14.20;20.90;;;;;;8330725;28;20247;-67
2023/07/10 03:20:06;;;;;;;9.47;8.47;;;14.30;94.60;;;;;;8348576;28;20196;-67
2023/07/10 03:24:07;;;;;;;9.93;8.97;;;14.30;99.90;;;;;;8347493;28;20216;-69
2023/07/10 03:28:08;;;;;;;8.70;7.90;;;14.40;99.90;;;;;;8348248;28;20185;-67
2023/07/10 03:32:09;;;;;;;8.63;7.87;;;14.60;41.60;;;;;;8353941;28;20226;-67
2023/07/10 03:36:11;;;;;;;9.57;8.67;;;14.80;1.00;;;;;;8354905;28;20181;-67
2023/07/10 03:40:12;;;;;;;8.93;8.03;;;15.00;1.00;;;;;;8350096;28;20189;-67
2023/07/10 03:44:13;;;;;;;11.10;9.07;;;15.20;1.00;;;;;;8358405;28;20205;-66
2023/07/10 03:48:15;;;;;;;9.77;8.87;;;15.50;1.00;;;;;;8353853;28;20186;-68
2023/07/10 03:52:16;;;;;;;8.93;8.03;;;16.20;99.90;;;;;;8348359;28;20193;-67
2023/07/10 03:56:17;;;;;;;9.63;8.67;;;17.40;99.90;;;;;;8368249;28;20189;-67
2023/07/10 04:00:19;;;;;;;8.40;7.60;;;18.60;99.90;;;;;;8352986;28;20201;-67
2023/07/10 04:04:19;;;;;;;8.67;7.87;;;19.60;14.10;;;;;;8353234;28;20213;-68
2023/07/10 04:08:21;;;;;;;8.60;7.80;;;19.70;1.00;;;;;;8353414;28;20193;-66
2023/07/10 04:12:22;;;;;;;9.10;8.07;;;19.40;1.00;;;;;;8351580;28;20194;-69
2023/07/10 04:16:25;;;;;;;7.00;6.30;;;19.00;1.00;;;;;;8357123;28;20196;-65
2023/07/10 04:20:26;;;;;;;7.97;6.57;;;19.20;1.00;;;;;;8351242;28;20192;-67
2023/07/10 04:24:27;;;;;;;7.00;6.27;;;20.00;1.00;;;;;;8352876;28;20220;-67
2023/07/10 04:28:29;;;;;;;6.47;5.87;;;20.30;1.00;;;;;;8349874;28;20177;-67
2023/07/10 04:32:32;;;;;;;8.27;6.23;;;20.20;1.00;;;;;;8366708;28;20190;-68
2023/07/10 04:36:35;;;;;;;8.50;5.73;;;19.90;1.00;;;;;;8364635;28;20186;-66
2023/07/10 04:40:50;;;;;;;7.93;5.57;;;19.60;1.00;;;;;;8357706;28;20250;-68
2023/07/10 04:44:51;;;;;;;5.70;5.20;;;19.40;1.00;;;;;;8368686;28;20213;-66
2023/07/10 04:48:53;;;;;;;9.33;7.67;;;19.30;1.00;;;;;;8350353;28;20193;-67
2023/07/10 04:52:55;;;;;;;8.27;7.03;;;19.10;1.00;;;;;;8352287;28;20193;-67
2023/07/10 04:56:56;;;;;;;9.13;8.23;;;18.60;1.00;;;;;;8349536;28;20193;-67
2023/07/10 05:01:01;;;;;;;10.43;8.07;;;18.50;1.00;;;;;;8352856;28;20259;-68
2023/07/10 05:05:02;;;;;;;8.77;7.77;;;18.40;1.00;;;;;;8349310;28;20213;-67
2023/07/10 05:09:03;;;;;;;9.43;8.43;;;18.50;1.00;;;;;;8348481;28;20200;-66
2023/07/10 05:13:04;;;;;;;8.30;7.50;;;18.60;49.00;;;;;;8351809;28;20189;-67
2023/07/10 05:17:11;;;;;;;7.83;7.03;;;18.70;51.30;;;;;;8348517;28;20270;-68
2023/07/10 05:21:13;;;;;;;11.60;9.20;;;18.90;20.00;;;;;;8348887;28;20193;-66
2023/07/10 05:25:23;;;;;;;9.93;8.93;;;19.10;56.50;;;;;;8339416;28;20290;-66
2023/07/10 05:29:24;;;;;;;10.53;8.47;;;19.10;72.30;;;;;;8349537;28;20190;-68
2023/07/10 05:33:26;;;;;;;9.63;8.53;;;19.20;65.60;;;;;;8349303;28;20268;-67
2023/07/10 05:37:27;;;;;;;10.07;8.67;;;19.50;47.10;;;;;;8352602;28;20234;-67
2023/07/10 05:41:34;;;;;;;7.80;7.00;;;19.90;14.50;;;;;;8345351;28;20193;-67
2023/07/10 05:45:35;;;;;;;9.40;6.57;;;20.40;1.00;;;;;;8350650;28;20240;-67
2023/07/10 05:49:36;;;;;;;7.67;6.90;;;21.10;1.00;;;;;;8353822;28;20184;-67
2023/07/10 05:53:37;;;;;;;8.13;6.17;;;21.80;1.00;;;;;;8345832;28;20217;-68
2023/07/10 05:57:38;;;;;;;6.90;6.20;;;22.50;1.00;;;;;;8356420;28;20196;-68
2023/07/10 06:01:39;;;;;;;6.37;5.77;;;23.10;1.00;;;;;;8347627;28;20197;-67
2023/07/10 06:05:40;;;;;;;12.10;5.50;;;23.60;1.00;;;;;;8345354;28;20233;-67
2023/07/10 06:09:41;;;;;;;7.17;5.30;;;24.00;1.00;;;;;;8343577;28;20185;-67
2023/07/10 06:13:42;;;;;;;14.20;6.27;;;24.40;1.00;;;;;;8352180;28;20308;-68
2023/07/10 06:17:49;;;;;;;11.47;7.27;;;24.70;1.00;;;;;;8353724;28;20242;-68
2023/07/10 06:22:13;;;;;;;9.50;6.43;;;24.90;1.00;;;;;;8357803;28;20193;-68
2023/07/10 06:26:14;;;;;;;11.33;6.03;;;24.90;1.00;;;;;;8347230;28;20190;-67
2023/07/10 06:30:16;;;;;;;9.53;7.33;;;24.90;1.00;;;;;;8349109;28;20190;-67
2023/07/10 06:34:17;;;;;;;10.17;6.63;;;24.70;1.00;;;;;;8352484;28;20224;-67
2023/07/10 06:38:18;;;;;;;10.17;7.63;;;24.40;1.00;;;;;;8348719;28;20260;-67
2023/07/10 06:42:19;;;;;;;8.53;7.40;;;24.10;1.00;;;;;;8348196;28;20201;-67
2023/07/10 06:46:24;;;;;;;8.97;6.87;;;23.80;1.00;;;;;;8343750;28;20190;-67
2023/07/10 06:50:25;;;;;;;7.13;6.13;;;23.70;1.00;;;;;;8345391;28;20181;-66
2023/07/10 06:54:29;;;;;;;8.53;6.47;;;23.80;1.00;;;;;;8345614;28;20185;-68
2023/07/10 06:58:31;;;;;;;8.97;5.67;;;23.90;1.00;;;;;;8363144;28;20284;-69
2023/07/10 07:02:33;;;;;;;8.27;6.30;;;24.00;1.00;;;;;;8349018;28;20209;-67
2023/07/10 07:06:35;;;;;;;6.57;5.60;;;24.30;1.00;;;;;;8370613;28;20189;-69
2023/07/10 07:10:44;;;;;;;9.13;5.77;;;24.80;1.00;;;;;;8363038;28;20177;-67
2023/07/10 07:14:54;;;;;;;8.17;5.23;;;25.20;1.00;;;;;;8371730;28;20188;-67
2023/07/10 07:18:55;;;;;;;7.90;6.27;;;25.20;1.00;;;;;;8365508;28;20193;-68
2023/07/10 07:22:56;;;;;;;7.67;6.10;;;24.90;1.00;;;;;;8360760;28;20372;-68
2023/07/10 07:26:57;;;;;;;9.20;6.40;;;24.70;1.00;;;;;;8354449;28;20188;-67
2023/07/10 07:31:05;;;;;;;11.50;8.87;;;24.50;1.00;;;;;;8354281;28;20181;-68
2023/07/10 07:35:07;;;;;;;10.40;9.30;;;24.10;1.00;;;;;;8356859;28;20189;-69
2023/07/10 07:39:15;;;;;;;9.87;8.87;;;23.70;1.00;;;;;;8360805;28;20194;-67
2023/07/10 07:43:16;;;;;;;11.77;8.50;;;23.60;1.00;;;;;;8351971;28;20225;-69
2023/07/10 07:47:17;;;;;;;8.43;7.60;;;23.80;1.00;;;;;;8358895;28;20236;-69
2023/07/10 07:51:20;;;;;;;11.00;7.33;;;24.00;1.00;;;;;;8370911;28;20188;-69
2023/07/10 07:55:21;;;;;;;10.43;9.33;;;24.30;1.00;;;;;;8352722;28;20196;-66
2023/07/10 07:59:25;;;;;;;9.23;7.00;;;23.70;17.40;;;;;;8372706;28;20220;-65
2023/07/10 08:03:27;;;;;;;9.10;7.33;;;22.80;1.00;;;;;;8368613;28;20254;-65
2023/07/10 08:07:28;;;;;;;8.60;7.53;;;22.50;1.00;;;;;;8360146;28;20185;-65
2023/07/10 08:11:33;;;;;;;7.80;7.00;;;22.30;1.00;;;;;;8355065;28;20207;-66
2023/07/10 08:15:34;;;;;;;9.70;6.73;;;22.40;1.00;;;;;;8360208;28;20286;-66
2023/07/10 08:19:35;;;;;;;8.67;7.07;;;22.50;1.00;;;;;;8351567;28;20193;-66
2023/07/10 08:23:36;;;;;;;7.77;6.97;;;22.70;1.00;;;;;;8351798;28;20209;-66
2023/07/10 08:27:38;;;;;;;8.27;6.93;;;22.90;1.00;;;;;;8352279;28;20174;-67
2023/07/10 08:31:38;;;;;;;9.80;7.33;;;23.20;1.00;;;;;;8354700;28;20181;-67
2023/07/10 08:35:44;;;;;;;7.00;6.30;;;23.40;1.00;;;;;;8355285;28;20178;-65
2023/07/10 08:39:48;;;;;;;7.80;6.77;;;23.50;1.00;;;;;;8351188;28;20192;-66
2023/07/10 08:43:49;;;;;;;11.47;7.70;;;23.60;1.00;;;;;;8349559;28;20218;-66
2023/07/10 08:48:11;;;;;;;8.70;7.80;;;23.60;1.00;;;;;;8348577;28;20188;-66
2023/07/10 08:52:15;;;;;;;8.93;8.13;;;23.50;1.00;;;;;;8350523;28;20199;-67
2023/07/10 08:56:35;;;;;;;8.70;7.83;;;23.40;1.00;;;;;;8343968;28;20190;-68
2023/07/10 09:00:42;;;;;;;10.27;8.43;;;23.30;1.00;;;;;;8354341;28;20202;-67
2023/07/10 09:04:45;;;;;;;10.33;9.00;;;23.20;1.00;;;;;;8345748;28;20213;-67
2023/07/10 09:08:52;;;;;;;8.50;7.70;;;23.20;1.00;;;;;;8352129;28;20177;-67
2023/07/10 09:13:00;;;;;;;8.40;7.60;;;23.70;1.00;;;;;;8348255;28;20284;-67
2023/07/10 09:17:16;;;;;;;9.23;7.53;;;24.30;1.00;;;;;;8353759;28;20182;-67
2023/07/10 09:21:29;;;;;;;6.50;5.90;;;24.90;1.00;;;;;;8363549;28;20189;-68
2023/07/10 09:25:36;;;;;;;7.63;6.83;;;25.60;1.00;;;;;;8365906;28;20269;-67
2023/07/10 09:29:40;;;;;;;7.22;5.85;;;26.00;1.00;;;;;;8352165;28;20182;-68
2023/07/10 09:33:44;;;;;;;6.13;5.50;;;26.40;1.00;;;;;;8350501;28;20216;-66
2023/07/10 09:37:54;;;;;;;7.05;6.07;;;26.60;1.00;;;;;;8350052;28;20223;-67
2023/07/10 09:41:59;;;;;;;6.85;6.13;;;26.70;1.00;;;;;;8353331;28;20182;-68
2023/07/10 09:46:00;;;;;;;8.93;6.15;;;26.80;1.00;;;;;;8352735;28;20193;-68
2023/07/10 09:50:03;;;;;;;8.93;5.93;;;27.00;1.00;;;;;;8347936;28;20268;-67
2023/07/10 09:54:06;;;;;;;6.85;5.22;;;26.90;1.00;;;;;;8347081;28;20213;-67
2023/07/10 09:58:12;;;;;;;8.60;5.40;;;26.80;1.00;;;;;;8365591;28;20188;-67
2023/07/10 10:02:34;;;;;;;8.15;5.25;;;26.80;1.00;;;;;;8361040;28;20221;-67
2023/07/10 10:06:40;;;;;;;5.57;4.93;;;27.00;1.00;;;;;;8352363;28;20173;-65
2023/07/10 10:10:43;;;;;;;6.65;5.22;;;27.30;1.00;;;;;;8347275;28;20186;-67
2023/07/10 10:14:52;;;;;;;5.00;4.43;;;27.50;1.00;;;;;;8364218;28;20200;-68
2023/07/10 10:19:21;;;;;;;5.10;4.05;;;27.70;1.00;;;;;;8346233;28;20216;-67
2023/07/10 10:23:37;;;;;;;5.90;4.47;;;27.70;1.00;;;;;;8360733;28;20239;-66
2023/07/10 10:27:51;;;;;;;4.80;3.80;;;27.80;1.00;;;;;;8361772;28;20186;-68
2023/07/10 10:32:04;;;;;;;5.35;4.13;;;28.10;1.00;;;;;;8346267;28;20231;-68
2023/07/10 10:36:14;;;;;;;4.50;3.42;;;28.30;99.90;;;;;;8342765;28;20213;-67
2023/07/10 10:40:37;;;;;;;5.30;3.92;;;28.60;99.90;;;;;;8363414;28;20188;-68
2023/07/10 10:44:45;;;;;;;7.53;3.65;;;28.80;99.90;;;;;;8363320;28;20216;-68
2023/07/10 10:48:50;;;;;;;6.25;4.18;;;28.90;99.90;;;;;;8344126;28;20297;-68
2023/07/10 10:53:09;;;;;;;4.25;3.50;;;29.20;99.90;;;;;;8344034;28;20185;-67
2023/07/10 10:57:55;;;;;;;5.18;3.42;;;29.50;99.90;;;;;;8347512;28;20201;-69
2023/07/10 11:02:17;;;;;;;5.45;3.90;;;29.60;99.90;;;;;;8328277;28;20258;-67
2023/07/10 11:06:49;;;;;;;5.35;3.67;;;30.00;99.90;;;;;;8347607;28;20211;-66
2023/07/10 11:10:52;;;;;;;6.78;3.28;;;29.80;99.90;;;;;;8349541;28;20186;-67
2023/07/10 11:15:04;;;;;;;3.92;3.53;;;29.60;99.90;;;;;;8344718;28;20196;-67
2023/07/10 11:19:06;;;;;;;5.25;3.75;;;29.40;99.90;;;;;;8346208;28;20185;-68
2023/07/10 11:23:56;;;;;;;5.75;3.70;;;28.90;99.90;;;;;;8358882;28;20210;-67
2023/07/10 11:28:05;;;;;;;4.25;3.85;;;28.50;99.90;;;;;;8341531;28;20200;-68
2023/07/10 11:32:26;;;;;;;5.53;4.28;;;28.40;99.90;;;;;;8343371;28;20178;-67
2023/07/10 11:36:27;;;;;;;5.65;3.60;;;28.40;99.90;;;;;;8360525;28;20182;-65
2023/07/10 11:40:28;;;;;;;5.22;4.18;;;28.30;99.90;;;;;;8340392;28;20212;-66
2023/07/10 11:44:32;;;;;;;6.32;3.95;;;28.60;99.90;;;;;;8344603;28;20212;-66
2023/07/10 11:48:38;;;;;;;3.80;3.40;;;28.80;99.90;;;;;;8349264;28;20182;-66
2023/07/10 11:52:42;;;;;;;4.75;3.70;;;29.00;99.90;;;;;;8348537;28;20186;-67
2023/07/10 11:57:08;;;;;;;4.55;3.90;;;29.00;99.90;;;;;;8361400;28;20182;-67
2023/07/10 12:01:20;;;;;;;8.40;3.90;;;28.90;99.90;;;;;;8350530;28;20201;-68
2023/07/10 12:05:36;;;;;;;5.80;3.83;;;28.80;99.90;;;;;;8356334;28;20323;-65
2023/07/10 12:09:37;;;;;;;6.25;3.38;;;28.80;99.90;;;;;;8348769;28;20189;-68
2023/07/10 12:13:38;;;;;;;4.70;2.80;;;29.10;99.90;;;;;;8351650;28;20264;-68
2023/07/10 12:17:40;;;;;;;3.50;3.17;;;29.30;99.90;;;;;;8350685;28;20193;-65
2023/07/10 12:21:42;;;;;;;4.13;3.30;;;29.40;99.90;;;;;;8348155;28;20185;-66
2023/07/10 12:25:55;;;;;;;3.53;2.95;;;29.60;99.90;;;;;;8365659;28;20205;-67
2023/07/10 12:29:56;;;;;;;6.03;3.63;;;29.70;99.90;;;;;;8352908;28;20181;-67
2023/07/10 12:34:01;;;;;;;5.07;3.22;;;30.00;99.90;;;;;;8351526;28;20213;-67
2023/07/10 12:38:08;;;;;;;4.40;3.20;;;30.30;99.90;;;;;;8353794;28;20197;-68
2023/07/10 12:42:33;;;;;;;4.97;3.00;;;30.40;99.90;;;;;;8335904;28;20198;-68
2023/07/10 12:46:34;;;;;;;3.35;2.83;;;30.90;99.90;;;;;;8353328;28;20197;-68
2023/07/10 12:50:51;;;;;;;4.35;2.60;;;31.10;99.90;;;;;;8346897;28;20178;-68
2023/07/10 12:54:54;;;;;;;4.63;2.58;;;31.00;99.90;;;;;;8366797;28;20190;-68
2023/07/10 12:59:08;;;;;;;3.20;2.65;;;31.30;99.90;;;;;;8352400;28;20210;-68
2023/07/10 13:03:21;;;;;;;5.55;3.13;;;31.60;99.90;;;;;;8355488;28;20217;-67
2023/07/10 13:07:34;;;;;;;3.30;3.00;;;31.90;99.90;;;;;;8350603;28;20258;-67
2023/07/10 13:11:42;;;;;;;4.05;2.72;;;32.00;99.90;;;;;;8356905;28;20186;-66
2023/07/10 13:15:44;;;;;;;3.75;2.67;;;31.60;99.90;;;;;;8350116;28;20178;-68
2023/07/10 13:19:44;;;;;;;3.10;2.80;;;31.40;99.90;;;;;;8348714;28;20181;-67
2023/07/10 13:23:46;;;;;;;3.92;2.58;;;31.30;99.90;;;;;;8353608;28;20261;-67
2023/07/10 13:27:50;;;;;;;2.53;2.33;;;31.20;99.90;;;;;;8352359;28;20197;-67
2023/07/10 13:31:50;;;;;;;3.00;2.15;;;31.00;99.90;;;;;;8347771;28;20178;-67
2023/07/10 13:35:57;;;;;;;3.10;2.50;;;30.80;99.90;;;;;;8353638;28;20185;-68
2023/07/10 13:39:58;;;;;;;3.60;3.00;;;30.80;99.90;;;;;;8345983;28;20228;-68
2023/07/10 13:43:59;;;;;;;3.30;2.90;;;31.30;99.90;;;;;;8349487;28;20214;-68
2023/07/10 13:48:00;;;;;;;3.40;2.80;;;31.70;99.90;;;;;;8355817;28;20296;-67
2023/07/10 13:52:04;;;;;;;2.83;2.38;;;31.90;99.90;;;;;;8345658;28;20185;-68
2023/07/10 13:56:23;;;;;;;2.67;2.42;;;31.80;99.90;;;;;;8348363;28;20188;-68
2023/07/10 14:00:24;;;;;;;2.53;2.30;;;31.90;99.90;;;;;;8344418;28;20197;-67
2023/07/10 14:04:26;;;;;;;3.35;2.60;;;31.80;99.90;;;;;;8361478;28;20221;-68
2023/07/10 14:08:33;;;;;;;3.10;2.45;;;32.00;99.90;;;;;;8365397;28;20178;-68
2023/07/10 14:12:37;;;;;;;3.78;2.47;;;32.30;99.90;;;;;;8348988;28;20190;-67
2023/07/10 14:16:38;;;;;;;2.88;2.35;;;32.70;99.90;;;;;;8337194;28;20193;-68
2023/07/10 14:20:39;;;;;;;4.93;3.20;;;32.90;99.90;;;;;;8363317;28;20185;-68
2023/07/10 14:24:40;;;;;;;4.05;3.00;;;32.90;99.90;;;;;;8363950;28;20220;-68
2023/07/10 14:28:41;;;;;;;2.83;2.53;;;33.00;99.90;;;;;;8345756;28;20296;-68
2023/07/10 14:32:42;;;;;;;4.47;2.90;;;32.70;99.90;;;;;;8348418;28;20189;-69
2023/07/10 14:36:45;;;;;;;3.20;2.90;;;32.50;99.90;;;;;;8347176;28;20177;-68
2023/07/10 14:40:48;;;;;;;2.60;2.40;;;32.20;99.90;;;;;;8349605;28;20188;-68
2023/07/10 14:44:49;;;;;;;3.17;2.28;;;32.20;99.90;;;;;;8346008;28;20204;-69
2023/07/10 14:48:51;;;;;;;3.80;2.17;;;32.30;99.90;;;;;;8361559;28;20216;-67
2023/07/10 14:52:52;;;;;;;3.47;2.47;;;32.30;99.90;;;;;;8359978;28;20196;-69
2023/07/10 14:56:56;;;;;;;2.78;2.50;;;32.20;99.90;;;;;;8344920;28;20208;-69
2023/07/10 15:00:58;;;;;;;4.00;2.72;;;31.90;99.90;;;;;;8352986;28;20233;-68
2023/07/10 15:04:59;;;;;;;5.90;2.85;;;31.60;99.90;;;;;;8348150;28;20221;-70
2023/07/10 15:09:00;;;;;;;3.97;3.05;;;31.60;99.90;;;;;;8347995;28;20182;-68
2023/07/10 15:13:02;;;;;;;3.30;3.00;;;31.60;99.90;;;;;;8361631;28;20189;-69
2023/07/10 15:17:05;;;;;;;3.83;3.20;;;31.50;99.90;;;;;;8348854;28;20190;-68
2023/07/10 15:21:09;;;;;;;3.75;2.97;;;31.50;99.90;;;;;;8343300;28;20200;-68
2023/07/10 15:25:21;;;;;;;4.35;3.35;;;31.30;99.90;;;;;;8343113;28;20208;-69
2023/07/10 15:29:25;;;;;;;3.88;3.47;;;31.30;99.90;;;;;;8350383;28;20181;-68
2023/07/10 15:33:31;;;;;;;4.63;3.33;;;31.30;99.90;;;;;;8343451;28;20192;-67
2023/07/10 15:37:33;;;;;;;3.75;3.28;;;31.30;99.90;;;;;;8369439;28;20211;-67
2023/07/10 15:41:34;;;;;;;4.60;3.30;;;31.50;99.90;;;;;;8355780;28;20217;-68
2023/07/10 15:45:35;;;;;;;3.90;3.50;;;31.50;99.90;;;;;;8352942;28;20225;-68
2023/07/10 15:49:36;;;;;;;5.03;3.90;;;31.70;99.90;;;;;;8358617;28;20207;-66
2023/07/10 15:53:38;;;;;;;6.13;3.33;;;32.00;99.90;;;;;;8350947;28;20185;-68
2023/07/10 15:57:39;;;;;;;3.85;3.47;;;31.90;99.90;;;;;;8368956;28;20304;-67
2023/07/10 16:01:41;;;;;;;4.38;3.97;;;32.10;99.90;;;;;;8368035;28;20251;-68
2023/07/10 16:05:42;;;;;;;7.00;3.97;;;32.10;99.90;;;;;;8350427;28;20256;-68
2023/07/10 16:09:43;;;;;;;4.15;3.38;;;32.30;99.90;;;;;;8350264;28;20177;-68
2023/07/10 16:13:47;;;;;;;4.85;3.60;;;32.20;99.90;;;;;;8352372;28;20193;-71
2023/07/10 16:17:49;;;;;;;4.43;4.00;;;31.70;99.90;;;;;;8368857;28;20200;-68
2023/07/10 16:21:54;;;;;;;4.28;3.83;;;31.50;99.90;;;;;;8368616;28;20213;-67
2023/07/10 16:25:58;;;;;;;4.10;3.67;;;31.40;99.90;;;;;;8366990;28;20251;-68
2023/07/10 16:30:02;;;;;;;5.10;3.92;;;31.50;99.90;;;;;;8353772;28;20213;-68
2023/07/10 16:34:03;;;;;;;5.82;4.10;;;31.50;99.90;;;;;;8357562;28;20192;-69
2023/07/10 16:38:04;;;;;;;5.93;4.95;;;31.50;99.90;;;;;;8350385;28;20204;-67
2023/07/10 16:42:13;;;;;;;6.47;4.75;;;31.60;99.90;;;;;;8347825;28;20187;-68
2023/07/10 16:46:16;;;;;;;8.07;5.68;;;31.10;99.90;;;;;;8365071;28;20209;-66
2023/07/10 16:50:19;;;;;;;7.45;6.28;;;30.60;99.90;;;;;;8354832;28;20266;-66
2023/07/10 16:54:20;;;;;;;8.63;6.18;;;30.30;99.90;;;;;;8345452;28;20182;-64
2023/07/10 16:58:24;;;;;;;7.15;5.82;;;30.00;99.90;;;;;;8350274;28;20186;-67
2023/07/10 17:02:32;;;;;;;8.45;7.00;;;29.70;99.90;;;;;;8352345;28;20280;-65
2023/07/10 17:06:36;;;;;;;9.90;6.95;;;29.50;99.90;;;;;;8363645;28;20185;-67
2023/07/10 17:10:37;;;;;;;8.48;7.57;;;29.50;99.90;;;;;;8357512;28;20209;-65
2023/07/10 17:14:38;;;;;;;11.00;7.95;;;29.50;99.90;;;;;;8349954;28;20223;-63
2023/07/10 17:18:40;;;;;;;8.60;7.68;;;29.00;99.90;;;;;;8347016;28;20189;-66
2023/07/10 17:22:43;;;;;;;9.82;8.13;;;28.90;99.90;;;;;;8365925;28;20236;-69
2023/07/10 17:26:45;;;;;;;10.60;7.82;;;28.60;99.90;;;;;;8342981;28;20251;-66
2023/07/10 17:30:50;;;;;;;13.20;8.20;;;28.40;99.90;;;;;;8352092;28;20177;-66
2023/07/10 17:34:53;;;;;;;10.68;7.45;;;28.60;99.90;;;;;;8354776;28;20185;-65
2023/07/10 17:39:01;;;;;;;12.50;7.10;;;28.30;99.90;;;;;;8352333;28;20188;-65
2023/07/10 17:43:03;;;;;;;8.80;6.63;;;28.20;99.90;;;;;;8346664;28;20223;-66
2023/07/10 17:47:04;;;;;;;12.32;6.72;;;28.10;99.90;;;;;;8351800;28;20181;-67
2023/07/10 17:51:29;;;;;;;6.95;6.25;;;27.80;99.90;;;;;;8365787;28;20291;-66
2023/07/10 17:55:35;;;;;;;8.52;5.78;;;27.50;99.90;;;;;;8349876;28;20182;-66
2023/07/10 17:59:37;;;;;;;9.93;6.63;;;27.30;1.00;;;;;;8347484;28;20236;-65
2023/07/10 18:03:38;;;;;;;10.35;5.95;;;27.40;1.00;;;;;;8364843;28;20206;-66
2023/07/10 18:07:40;;;;;;;10.63;6.25;;;27.30;1.00;;;;;;8363747;28;20185;-64
2023/07/10 18:11:41;;;;;;;8.00;6.32;;;27.10;1.00;;;;;;8350027;28;20182;-67
2023/07/10 18:15:43;;;;;;;9.32;5.88;;;27.20;1.00;;;;;;8346622;28;20277;-66
2023/07/10 18:19:46;;;;;;;6.75;5.88;;;27.20;1.00;;;;;;8363273;28;20211;-65
2023/07/10 18:23:48;;;;;;;7.53;6.07;;;27.00;1.00;;;;;;8361712;28;20200;-65
2023/07/10 18:27:48;;;;;;;9.67;6.27;;;26.60;1.00;;;;;;8361402;28;20231;-67
2023/07/10 18:31:50;;;;;;;7.20;5.67;;;26.30;1.00;;;;;;8351787;28;20178;-65
2023/07/10 18:35:52;;;;;;;7.40;5.43;;;26.10;1.00;;;;;;8351558;28;20189;-64
2023/07/10 18:39:55;;;;;;;7.00;6.30;;;25.90;1.00;;;;;;8346093;28;20197;-64
2023/07/10 18:44:06;;;;;;;9.87;6.33;;;25.70;1.00;;;;;;8353906;28;20205;-65
2023/07/10 18:48:21;;;;;;;7.47;6.37;;;25.60;1.00;;;;;;8346967;28;20213;-64
2023/07/10 18:52:33;;;;;;;8.63;6.47;;;25.50;1.00;;;;;;8346240;28;20184;-65
2023/07/10 18:56:38;;;;;;;9.77;6.10;;;25.40;1.00;;;;;;8350001;28;20189;-65
2023/07/10 19:00:40;;;;;;;7.33;6.47;;;25.30;1.00;;;;;;8353874;28;20192;-64
2023/07/10 19:04:41;;;;;;;8.07;6.60;;;25.10;1.00;;;;;;8346105;28;20285;-65
2023/07/10 19:08:45;;;;;;;7.73;5.87;;;25.00;1.00;;;;;;8365122;28;20177;-65
2023/07/10 19:12:47;;;;;;;6.63;6.03;;;24.80;1.00;;;;;;8359694;28;20185;-66
2023/07/10 19:16:49;;;;;;;8.20;6.53;;;24.60;1.00;;;;;;8348046;28;20192;-63
2023/07/10 19:20:51;;;;;;;7.53;6.53;;;24.40;1.00;;;;;;8362946;28;20257;-64
2023/07/10 19:24:52;;;;;;;6.93;6.33;;;24.40;1.00;;;;;;8348099;28;20209;-66
2023/07/10 19:28:53;;;;;;;10.63;7.27;;;24.40;1.00;;;;;;8345120;28;20272;-66
2023/07/10 19:32:54;;;;;;;8.77;5.63;;;24.30;1.00;;;;;;8342648;28;20188;-64
2023/07/10 19:36:55;;;;;;;7.90;6.33;;;24.20;1.00;;;;;;8344391;28;20264;-64
2023/07/10 19:40:59;;;;;;;7.00;6.27;;;24.20;1.00;;;;;;8350259;28;20193;-64
2023/07/10 19:45:01;;;;;;;7.83;6.73;;;24.10;1.00;;;;;;8345049;28;20228;-66
2023/07/10 19:49:02;;;;;;;11.10;7.13;;;24.10;1.00;;;;;;8359040;28;20189;-65
2023/07/10 19:53:13;;;;;;;7.47;6.77;;;23.90;1.00;;;;;;8346651;28;20192;-63
2023/07/10 19:57:34;;;;;;;7.73;6.73;;;23.70;1.00;;;;;;8362356;28;20257;-65
2023/07/10 20:01:35;;;;;;;7.50;6.70;;;23.50;1.00;;;;;;8364673;28;20197;-64
2023/07/10 20:05:36;;;;;;;7.43;6.63;;;23.30;1.00;;;;;;8362252;28;20240;-63
2023/07/10 20:09:37;;;;;;;9.90;8.63;;;23.20;1.00;;;;;;8353681;28;20182;-64
2023/07/10 20:13:38;;;;;;;7.60;6.63;;;23.00;1.00;;;;;;8348907;28;20182;-64
2023/07/10 20:17:45;;;;;;;8.50;6.67;;;22.90;1.00;;;;;;8349238;28;20185;-63
2023/07/10 20:21:47;;;;;;;6.70;5.97;;;22.80;1.00;;;;;;8361236;28;20211;-63
2023/07/10 20:25:50;;;;;;;7.90;6.17;;;22.60;1.00;;;;;;8368485;28;20213;-63
2023/07/10 20:29:51;;;;;;;6.77;6.17;;;22.60;1.00;;;;;;8353330;28;20189;-62
2023/07/10 20:33:52;;;;;;;6.33;5.73;;;22.50;1.00;;;;;;8354318;28;20214;-63
2023/07/10 20:37:56;;;;;;;6.73;6.03;;;22.50;1.00;;;;;;8348508;28;20186;-63
2023/07/10 20:42:00;;;;;;;6.87;6.17;;;22.50;1.00;;;;;;8363826;28;20263;-63
2023/07/10 20:46:34;;;;;;;7.20;6.03;;;22.40;1.00;;;;;;8350158;28;20205;-63
2023/07/10 20:50:41;;;;;;;8.57;6.37;;;22.40;1.00;;;;;;8348322;28;20185;-63
2023/07/10 20:54:46;;;;;;;7.27;6.03;;;22.30;1.00;;;;;;8354482;28;20182;-63
2023/07/10 20:58:47;;;;;;;6.73;6.07;;;22.20;1.00;;;;;;8354866;28;20288;-63
2023/07/10 21:02:48;;;;;;;6.90;5.50;;;22.20;1.00;;;;;;8357289;28;20201;-64
2023/07/10 21:07:11;;;;;;;9.10;6.23;;;22.00;1.00;;;;;;8364677;28;20259;-62
2023/07/10 21:11:21;;;;;;;7.30;5.43;;;22.00;1.00;;;;;;8368076;28;20260;-67
2023/07/10 21:15:22;;;;;;;6.20;5.60;;;21.90;1.00;;;;;;8350553;28;20190;-68
2023/07/10 21:19:27;;;;;;;9.17;6.00;;;21.90;1.00;;;;;;8351533;28;20300;-65